Time;durP1;ratioP1;P1;durP2;ratioP2;P2;SDS_P1;SDS_P2;PMS_P1;PMS_P2;Temp;Humidity;BMP_temperature;BMP_pressure;BME280_temperature;BME280_humidity;BME280_pressure;Samples;Min_cycle;Max_cycle;Signal;HPM_P1;HPM_P2
2021/01/13 00:01:05;;;;;;;8.65;1.40;;;4.40;95.20;;;;;;5058676;28;20381;-75
2021/01/13 00:03:30;;;;;;;5.13;2.38;;;4.40;95.20;;;;;;5059283;28;20040;-76
2021/01/13 00:05:56;;;;;;;7.07;1.60;;;4.40;95.10;;;;;;5073842;28;20094;-75
2021/01/13 00:08:21;;;;;;;7.88;1.88;;;4.40;95.20;;;;;;5056887;28;20029;-74
2021/01/13 00:10:47;;;;;;;6.18;1.50;;;4.40;95.20;;;;;;5073028;28;20044;-76
2021/01/13 00:13:12;;;;;;;9.18;1.70;;;4.40;95.20;;;;;;5061307;28;20064;-75
2021/01/13 00:15:38;;;;;;;6.70;1.40;;;4.40;95.10;;;;;;5053738;28;20024;-75
2021/01/13 00:18:04;;;;;;;8.57;2.03;;;4.40;95.10;;;;;;5052354;28;20036;-74
2021/01/13 00:20:29;;;;;;;9.50;1.67;;;4.30;95.00;;;;;;5051175;28;20058;-75
2021/01/13 00:22:55;;;;;;;6.20;1.55;;;4.30;95.00;;;;;;5051860;28;20512;-74
2021/01/13 00:25:20;;;;;;;6.28;1.50;;;4.20;95.00;;;;;;5058598;28;20048;-74
2021/01/13 00:27:46;;;;;;;6.90;1.80;;;4.20;95.10;;;;;;5051801;28;20017;-75
2021/01/13 00:30:13;;;;;;;8.80;1.75;;;4.20;95.10;;;;;;5057692;28;20037;-75
2021/01/13 00:32:38;;;;;;;4.60;1.48;;;4.20;95.10;;;;;;5052330;28;20043;-75
2021/01/13 00:35:05;;;;;;;5.80;1.52;;;4.20;95.20;;;;;;5051881;28;20021;-76
2021/01/13 00:37:30;;;;;;;8.45;1.60;;;4.20;95.40;;;;;;5051506;28;20071;-74
2021/01/13 00:39:56;;;;;;;7.15;1.80;;;4.20;95.30;;;;;;5057472;28;20091;-73
2021/01/13 00:42:21;;;;;;;4.75;1.77;;;4.20;95.30;;;;;;5071691;28;20025;-74
2021/01/13 00:44:47;;;;;;;5.28;2.20;;;4.20;95.20;;;;;;5056758;28;20513;-73
2021/01/13 00:47:15;;;;;;;6.20;1.63;;;4.10;95.20;;;;;;5051473;28;20036;-73
2021/01/13 00:49:42;;;;;;;6.80;1.65;;;4.10;95.30;;;;;;5061907;28;20028;-73
2021/01/13 00:52:09;;;;;;;7.85;2.30;;;4.10;95.40;;;;;;5070732;28;20021;-71
2021/01/13 00:54:34;;;;;;;11.60;1.90;;;4.10;95.30;;;;;;5058664;28;20031;-65
2021/01/13 00:57:00;;;;;;;5.07;1.92;;;4.10;95.40;;;;;;5055386;28;20112;-66
2021/01/13 00:59:25;;;;;;;9.98;2.05;;;4.10;95.40;;;;;;5057306;28;20491;-66
2021/01/13 01:01:51;;;;;;;5.22;1.67;;;4.10;95.40;;;;;;5068752;28;20021;-65
2021/01/13 01:04:16;;;;;;;8.20;1.85;;;4.10;95.40;;;;;;5057227;28;20032;-65
2021/01/13 01:06:46;;;;;;;7.10;2.20;;;4.10;95.30;;;;;;5087711;28;20422;-66
2021/01/13 01:09:12;;;;;;;6.35;1.48;;;4.20;95.40;;;;;;5070679;28;20079;-66
2021/01/13 01:11:38;;;;;;;12.15;2.00;;;4.20;95.30;;;;;;5075242;28;20020;-66
2021/01/13 01:14:08;;;;;;;7.13;1.63;;;4.10;95.20;;;;;;5067051;28;20032;-66
2021/01/13 01:16:43;;;;;;;2.70;1.50;;;4.20;95.20;;;;;;5074913;28;20074;-66
2021/01/13 01:19:11;;;;;;;6.70;1.60;;;4.10;95.30;;;;;;5067867;28;20312;-67
2021/01/13 01:21:41;;;;;;;8.95;1.50;;;4.10;95.30;;;;;;5071982;28;20470;-67
2021/01/13 01:24:07;;;;;;;11.80;2.00;;;4.10;95.30;;;;;;5061646;28;20033;-67
2021/01/13 01:26:33;;;;;;;7.72;2.10;;;4.10;95.30;;;;;;5054002;28;20098;-67
2021/01/13 01:28:58;;;;;;;7.85;1.80;;;4.10;95.30;;;;;;5059838;28;20455;-67
2021/01/13 01:31:24;;;;;;;4.30;1.60;;;4.10;95.30;;;;;;5054156;28;20052;-67
2021/01/13 01:33:49;;;;;;;4.15;1.65;;;4.10;95.30;;;;;;5056458;28;20028;-67
2021/01/13 01:36:16;;;;;;;7.03;1.60;;;4.10;95.20;;;;;;5053949;28;20473;-67
2021/01/13 01:38:42;;;;;;;7.18;2.58;;;4.10;95.30;;;;;;5052628;28;20082;-67
2021/01/13 01:41:10;;;;;;;8.25;2.65;;;4.10;95.30;;;;;;5057624;28;20024;-67
2021/01/13 01:43:36;;;;;;;5.18;2.22;;;4.10;95.40;;;;;;5068388;28;20048;-67
2021/01/13 01:46:03;;;;;;;7.43;1.60;;;4.10;95.40;;;;;;5053835;28;20032;-67
2021/01/13 01:48:48;;;;;;;7.85;1.70;;;4.10;95.50;;;;;;5054781;28;20056;-67
2021/01/13 01:51:21;;;;;;;6.70;2.05;;;4.10;95.50;;;;;;5068446;28;20480;-67
2021/01/13 01:54:12;;;;;;;5.32;2.05;;;4.10;95.40;;;;;;5057216;28;20081;-67
2021/01/13 01:56:39;;;;;;;4.70;2.15;;;4.10;95.50;;;;;;5073146;28;20512;-67
2021/01/13 01:59:05;;;;;;;6.85;1.90;;;4.10;95.50;;;;;;5070129;28;20036;-67
2021/01/13 02:01:36;;;;;;;4.78;2.17;;;4.10;95.50;;;;;;5066759;28;20051;-67
2021/01/13 02:04:08;;;;;;;6.68;1.92;;;4.20;95.50;;;;;;5054998;28;20036;-67
2021/01/13 02:06:52;;;;;;;5.05;2.45;;;4.20;95.50;;;;;;5053755;28;20512;-67
2021/01/13 02:09:18;;;;;;;6.05;2.10;;;4.20;95.50;;;;;;5060739;28;20040;-66
2021/01/13 02:11:48;;;;;;;5.63;2.35;;;4.10;95.50;;;;;;5053713;28;20363;-66
2021/01/13 02:14:14;;;;;;;6.80;2.22;;;4.20;95.50;;;;;;5064304;28;20048;-67
2021/01/13 02:16:44;;;;;;;6.85;2.20;;;4.20;95.50;;;;;;5053824;28;20021;-67
2021/01/13 02:19:50;;;;;;;7.20;3.00;;;4.20;95.50;;;;;;5059676;28;20516;-67
2021/01/13 02:22:21;;;;;;;10.93;2.20;;;4.30;95.40;;;;;;5053798;28;20474;-66
2021/01/13 02:24:55;;;;;;;6.43;2.55;;;4.30;95.50;;;;;;5058431;28;20078;-66
2021/01/13 02:27:59;;;;;;;7.50;1.90;;;4.30;95.50;;;;;;5053647;28;20029;-66
2021/01/13 02:30:29;;;;;;;7.20;2.58;;;4.30;95.40;;;;;;5061944;28;20048;-66
2021/01/13 02:32:58;;;;;;;5.53;2.03;;;4.30;95.40;;;;;;5051960;28;20036;-66
2021/01/13 02:35:26;;;;;;;7.15;2.33;;;4.30;95.50;;;;;;5070152;28;20082;-66
2021/01/13 02:38:13;;;;;;;9.70;2.15;;;4.30;95.60;;;;;;5062009;28;20036;-66
2021/01/13 02:40:48;;;;;;;8.05;2.65;;;4.30;95.50;;;;;;5053145;28;20043;-66
2021/01/13 02:43:15;;;;;;;7.43;2.40;;;4.30;95.50;;;;;;5054403;28;20041;-66
2021/01/13 02:45:44;;;;;;;6.68;2.17;;;4.30;95.50;;;;;;5066800;28;20439;-66
2021/01/13 02:48:20;;;;;;;6.35;2.00;;;4.40;95.50;;;;;;5072535;28;20427;-66
2021/01/13 02:51:00;;;;;;;9.20;3.05;;;4.40;95.50;;;;;;5070313;28;20047;-67
2021/01/13 02:53:31;;;;;;;12.10;2.58;;;4.40;95.40;;;;;;5060676;28;20061;-67
2021/01/13 02:56:03;;;;;;;10.48;2.10;;;4.40;95.40;;;;;;5051567;28;20036;-67
2021/01/13 02:58:36;;;;;;;5.00;2.17;;;4.40;95.40;;;;;;5052597;28;20125;-67
2021/01/13 03:01:07;;;;;;;4.80;2.17;;;4.40;95.40;;;;;;5052289;28;20039;-66
2021/01/13 03:03:34;;;;;;;8.18;1.80;;;4.50;95.40;;;;;;5061675;28;20029;-66
2021/01/13 03:06:06;;;;;;;7.85;2.13;;;4.50;95.30;;;;;;5069481;28;20064;-66
2021/01/13 03:08:45;;;;;;;7.25;2.50;;;4.50;95.30;;;;;;5061811;28;20033;-67
2021/01/13 03:11:18;;;;;;;5.40;2.03;;;4.50;95.20;;;;;;5071718;28;20036;-66
2021/01/13 03:13:44;;;;;;;4.82;2.28;;;4.50;95.00;;;;;;5067437;28;20033;-67
2021/01/13 03:16:12;;;;;;;4.10;1.90;;;4.50;95.10;;;;;;5071087;28;20035;-66
2021/01/13 03:18:56;;;;;;;11.52;2.83;;;4.50;95.00;;;;;;5070208;28;20029;-66
2021/01/13 03:21:27;;;;;;;6.50;2.13;;;4.50;95.00;;;;;;5065440;28;20025;-66
2021/01/13 03:24:17;;;;;;;13.18;2.60;;;4.50;95.00;;;;;;5052298;28;20098;-66
2021/01/13 03:26:46;;;;;;;8.48;2.50;;;4.50;94.90;;;;;;5052234;28;20029;-67
2021/01/13 03:29:19;;;;;;;9.68;2.25;;;4.50;95.00;;;;;;5065606;28;20116;-67
2021/01/13 03:32:06;;;;;;;7.40;1.90;;;4.50;95.00;;;;;;5071953;28;20468;-67
2021/01/13 03:34:38;;;;;;;6.10;2.40;;;4.50;94.90;;;;;;5068743;28;20036;-68
2021/01/13 03:37:21;;;;;;;7.93;2.20;;;4.60;95.00;;;;;;5050992;28;20182;-67
2021/01/13 03:39:49;;;;;;;8.68;2.22;;;4.60;95.00;;;;;;5069703;28;20039;-66
2021/01/13 03:42:17;;;;;;;7.32;1.90;;;4.60;94.90;;;;;;5063649;28;20515;-66
2021/01/13 03:44:45;;;;;;;7.68;2.00;;;4.60;94.70;;;;;;5069389;28;20132;-66
2021/01/13 03:47:25;;;;;;;6.78;2.42;;;4.60;94.70;;;;;;5070785;28;20123;-65
2021/01/13 03:50:00;;;;;;;12.93;2.47;;;4.60;94.70;;;;;;5050693;28;20120;-65
2021/01/13 03:52:37;;;;;;;9.43;2.63;;;4.60;94.70;;;;;;5050399;28;20104;-66
2021/01/13 03:55:04;;;;;;;7.40;1.95;;;4.60;94.80;;;;;;5071127;28;20068;-66
2021/01/13 03:58:08;;;;;;;7.05;2.30;;;4.60;94.80;;;;;;5069172;28;20032;-66
2021/01/13 04:00:59;;;;;;;6.13;2.63;;;4.60;94.80;;;;;;5051781;28;20029;-65
2021/01/13 04:03:30;;;;;;;4.72;2.13;;;4.60;94.80;;;;;;5053954;28;20075;-65
2021/01/13 04:06:05;;;;;;;6.05;1.92;;;4.60;94.80;;;;;;5071715;28;20033;-65
2021/01/13 04:08:33;;;;;;;;;;;4.60;94.80;;;;;;5060662;28;20036;-65
2021/01/13 04:10:59;;;;;;;5.53;2.63;;;4.60;94.80;;;;;;5051985;28;20003;-66
2021/01/13 04:13:41;;;;;;;6.88;1.90;;;4.50;94.80;;;;;;5053541;28;20128;-66
2021/01/13 04:16:09;;;;;;;7.13;3.33;;;4.50;94.90;;;;;;5051313;28;20068;-66
2021/01/13 04:18:35;;;;;;;8.15;2.25;;;4.50;94.90;;;;;;5059728;28;20093;-66
2021/01/13 04:21:01;;;;;;;6.50;2.08;;;4.50;94.90;;;;;;5071341;28;20032;-66
2021/01/13 04:23:27;;;;;;;8.40;2.60;;;4.50;94.90;;;;;;5060562;28;20410;-66
2021/01/13 04:25:52;;;;;;;13.88;2.50;;;4.50;95.00;;;;;;5051054;28;20017;-66
2021/01/13 04:28:18;;;;;;;9.25;2.75;;;4.50;95.00;;;;;;5057861;28;20059;-66
2021/01/13 04:30:44;;;;;;;8.90;2.42;;;4.40;95.00;;;;;;5069872;28;20370;-66
2021/01/13 04:33:10;;;;;;;4.63;2.10;;;4.40;95.00;;;;;;5069062;28;20045;-66
2021/01/13 04:35:36;;;;;;;4.53;2.05;;;4.40;95.10;;;;;;5071267;28;20115;-66
2021/01/13 04:38:03;;;;;;;8.45;2.35;;;4.50;95.30;;;;;;5061886;28;20048;-66
2021/01/13 04:40:30;;;;;;;8.38;2.55;;;4.50;95.10;;;;;;5050155;28;20053;-66
2021/01/13 04:43:04;;;;;;;9.13;2.55;;;4.50;95.10;;;;;;5053190;28;20029;-66
2021/01/13 04:45:41;;;;;;;8.45;2.25;;;4.50;95.00;;;;;;5071418;28;20105;-67
2021/01/13 04:48:13;;;;;;;10.52;3.08;;;4.50;95.10;;;;;;5068520;28;20380;-67
2021/01/13 04:50:50;;;;;;;10.30;2.55;;;4.50;95.10;;;;;;5070201;28;20127;-67
2021/01/13 04:53:22;;;;;;;9.30;2.55;;;4.40;95.00;;;;;;5051618;28;20333;-66
2021/01/13 04:55:56;;;;;;;7.78;3.35;;;4.40;95.00;;;;;;5050676;28;20072;-67
2021/01/13 04:58:21;;;;;;;8.98;3.13;;;4.40;95.00;;;;;;5058438;28;20025;-66
2021/01/13 05:01:25;;;;;;;7.55;2.80;;;4.50;95.00;;;;;;5068758;28;20046;-67
2021/01/13 05:04:00;;;;;;;8.02;2.33;;;4.40;95.00;;;;;;5062421;28;20060;-66
2021/01/13 05:06:48;;;;;;;8.63;2.53;;;4.40;95.00;;;;;;5070893;28;20130;-66
2021/01/13 05:09:14;;;;;;;9.38;3.08;;;4.40;94.90;;;;;;5054463;28;20051;-66
2021/01/13 05:11:41;;;;;;;7.10;2.75;;;4.40;95.00;;;;;;5050843;28;20086;-66
2021/01/13 05:14:07;;;;;;;6.72;2.35;;;4.30;94.90;;;;;;5064560;28;20028;-66
2021/01/13 05:16:48;;;;;;;8.77;2.75;;;4.30;94.90;;;;;;5070435;28;20029;-66
2021/01/13 05:19:32;;;;;;;7.63;2.85;;;4.30;94.90;;;;;;5054208;28;20028;-66
2021/01/13 05:21:58;;;;;;;7.13;2.72;;;4.30;94.90;;;;;;5050884;28;20025;-66
2021/01/13 05:24:26;;;;;;;11.55;2.42;;;4.30;94.90;;;;;;5066122;28;20036;-66
2021/01/13 05:27:00;;;;;;;5.55;2.40;;;4.30;94.90;;;;;;5066016;28;20031;-66
2021/01/13 05:29:38;;;;;;;5.32;2.10;;;4.30;94.90;;;;;;5066634;28;20044;-67
2021/01/13 05:32:06;;;;;;;18.40;3.13;;;4.30;94.80;;;;;;5068949;28;20028;-67
2021/01/13 05:34:34;;;;;;;10.93;2.97;;;4.30;94.80;;;;;;5051714;28;20025;-67
2021/01/13 05:37:17;;;;;;;7.68;2.88;;;4.30;94.80;;;;;;5053092;28;20029;-67
2021/01/13 05:39:46;;;;;;;11.45;2.40;;;4.30;94.70;;;;;;5054101;28;20033;-67
2021/01/13 05:42:14;;;;;;;7.90;2.97;;;4.20;94.70;;;;;;5059816;28;20028;-67
2021/01/13 05:44:41;;;;;;;8.13;2.53;;;4.20;94.80;;;;;;5053800;28;20049;-67
2021/01/13 05:47:35;;;;;;;6.28;2.08;;;4.20;94.80;;;;;;5054705;28;20409;-67
2021/01/13 05:50:01;;;;;;;11.48;2.70;;;4.20;94.80;;;;;;5053744;28;20440;-67
2021/01/13 05:52:32;;;;;;;7.90;2.45;;;4.20;94.80;;;;;;5053873;28;20029;-67
2021/01/13 05:54:57;;;;;;;5.28;2.40;;;4.10;94.90;;;;;;5069005;28;20025;-67
2021/01/13 05:57:24;;;;;;;7.50;2.50;;;4.10;94.90;;;;;;5053398;28;20481;-67
2021/01/13 05:59:52;;;;;;;8.40;2.80;;;4.20;95.00;;;;;;5072594;28;20574;-67
2021/01/13 06:02:19;;;;;;;11.63;2.58;;;4.20;95.00;;;;;;5072419;28;20036;-67
2021/01/13 06:04:47;;;;;;;12.25;3.03;;;4.20;95.00;;;;;;5055789;28;20383;-67
2021/01/13 06:07:18;;;;;;;9.40;2.60;;;4.20;95.10;;;;;;5055938;28;20043;-67
2021/01/13 06:09:44;;;;;;;5.95;2.35;;;4.20;95.20;;;;;;5068579;28;20101;-67
2021/01/13 06:12:15;;;;;;;12.00;3.00;;;4.20;95.30;;;;;;5054233;28;20021;-67
2021/01/13 06:14:41;;;;;;;5.93;2.90;;;4.20;95.40;;;;;;5071944;28;20056;-66
2021/01/13 06:17:16;;;;;;;7.65;2.72;;;4.20;95.50;;;;;;5073401;28;20082;-67
2021/01/13 06:19:46;;;;;;;;;;;4.20;95.50;;;;;;5053808;28;20033;-67
2021/01/13 06:22:12;;;;;;;7.63;2.55;;;4.20;95.60;;;;;;5053691;28;19904;-67
2021/01/13 06:24:38;;;;;;;8.27;2.63;;;4.20;95.50;;;;;;5052711;28;20566;-66
2021/01/13 06:27:21;;;;;;;9.32;2.50;;;4.20;95.50;;;;;;5053400;28;20048;-66
2021/01/13 06:30:00;;;;;;;6.68;2.70;;;4.30;95.50;;;;;;5072723;28;20507;-67
2021/01/13 06:32:33;;;;;;;10.95;3.42;;;4.30;95.50;;;;;;5071473;28;20029;-66
2021/01/13 06:35:04;;;;;;;8.85;2.92;;;4.30;95.50;;;;;;5053737;28;20033;-67
2021/01/13 06:37:48;;;;;;;7.28;2.80;;;4.40;95.50;;;;;;5052765;28;20020;-67
2021/01/13 06:40:15;;;;;;;7.88;2.45;;;4.30;95.40;;;;;;5053269;28;20489;-67
2021/01/13 06:42:41;;;;;;;10.77;3.03;;;4.40;95.40;;;;;;5054044;28;20033;-67
2021/01/13 06:45:11;;;;;;;8.45;2.47;;;4.40;95.40;;;;;;5053191;28;20393;-67
2021/01/13 06:47:56;;;;;;;11.68;2.20;;;4.40;95.40;;;;;;5053023;28;20032;-67
2021/01/13 06:50:39;;;;;;;10.40;2.90;;;4.50;95.40;;;;;;5052691;28;20448;-67
2021/01/13 06:53:06;;;;;;;7.68;2.97;;;4.50;95.40;;;;;;5054358;28;20029;-67
2021/01/13 06:55:32;;;;;;;7.70;2.80;;;4.50;95.30;;;;;;5053282;28;20056;-67
2021/01/13 06:58:11;;;;;;;8.77;2.65;;;4.50;95.30;;;;;;5052649;28;20040;-68
2021/01/13 07:00:36;;;;;;;8.23;2.30;;;4.50;95.20;;;;;;5052405;28;20017;-67
2021/01/13 07:03:25;;;;;;;7.75;2.40;;;4.50;95.20;;;;;;5053662;28;20587;-67
2021/01/13 07:05:52;;;;;;;8.55;2.63;;;4.50;95.20;;;;;;5058724;28;20029;-67
2021/01/13 07:08:19;;;;;;;9.50;3.03;;;4.60;95.20;;;;;;5060078;28;20075;-67
2021/01/13 07:10:44;;;;;;;7.20;2.38;;;4.50;95.00;;;;;;5072293;28;20040;-67
2021/01/13 07:13:12;;;;;;;7.20;2.58;;;4.50;95.00;;;;;;5060098;28;20048;-67
2021/01/13 07:15:38;;;;;;;7.72;2.83;;;4.60;95.00;;;;;;5052732;28;20033;-67
2021/01/13 07:18:04;;;;;;;7.97;2.70;;;4.60;94.90;;;;;;5052111;28;20381;-67
2021/01/13 07:20:37;;;;;;;10.52;3.03;;;4.60;94.80;;;;;;5052607;28;20073;-66
2021/01/13 07:23:03;;;;;;;8.80;2.55;;;4.60;94.90;;;;;;5056744;28;20049;-67
2021/01/13 07:25:28;;;;;;;8.73;3.28;;;4.60;94.90;;;;;;5072303;28;20028;-67
2021/01/13 07:28:00;;;;;;;8.18;2.53;;;4.60;94.80;;;;;;5059665;28;20024;-67
2021/01/13 07:30:31;;;;;;;9.38;2.53;;;4.60;94.90;;;;;;5070181;28;20540;-67
2021/01/13 07:33:01;;;;;;;8.93;2.88;;;4.60;94.90;;;;;;5054548;28;20714;-67
2021/01/13 07:35:32;;;;;;;9.18;3.08;;;4.60;94.90;;;;;;5052391;28;20477;-67
2021/01/13 07:38:01;;;;;;;7.80;2.83;;;4.60;94.90;;;;;;5050700;28;20393;-67
2021/01/13 07:40:34;;;;;;;12.68;3.00;;;4.70;95.00;;;;;;5052374;28;20052;-67
2021/01/13 07:43:11;;;;;;;8.68;2.20;;;4.70;94.90;;;;;;5056203;28;20493;-68
2021/01/13 07:45:47;;;;;;;9.35;2.30;;;4.70;94.90;;;;;;5072362;28;20047;-67
2021/01/13 07:48:52;;;;;;;7.05;2.70;;;4.80;94.90;;;;;;5055160;28;20566;-67
2021/01/13 07:51:19;;;;;;;6.20;2.33;;;4.80;94.80;;;;;;5052628;28;20497;-67
2021/01/13 07:54:04;;;;;;;10.23;2.88;;;4.80;94.80;;;;;;5062624;28;20512;-67
2021/01/13 07:56:35;;;;;;;9.30;2.90;;;4.90;94.70;;;;;;5071481;28;20027;-67
2021/01/13 07:59:39;;;;;;;5.47;2.25;;;4.90;94.70;;;;;;5056419;28;20496;-67
2021/01/13 08:02:29;;;;;;;9.20;2.40;;;5.00;94.80;;;;;;5054801;28;20477;-67
2021/01/13 08:05:16;;;;;;;6.25;2.38;;;5.00;94.70;;;;;;5052067;28;20539;-67
2021/01/13 08:07:43;;;;;;;6.43;2.22;;;5.00;94.50;;;;;;5053712;28;20104;-67
2021/01/13 08:10:10;;;;;;;8.23;2.70;;;5.00;94.50;;;;;;5062054;28;20513;-69
2021/01/13 08:13:29;;;;;;;5.50;2.63;;;5.10;94.40;;;;;;5053301;28;20024;-67
2021/01/13 08:16:30;;;;;;;9.07;2.55;;;5.10;94.50;;;;;;5070940;28;20033;-67
2021/01/13 08:19:46;;;;;;;9.82;2.40;;;5.10;94.50;;;;;;5064198;28;20502;-68
2021/01/13 08:22:19;;;;;;;5.95;2.65;;;5.20;94.50;;;;;;5051905;28;20489;-68
2021/01/13 08:24:48;;;;;;;6.10;2.15;;;5.20;94.30;;;;;;5056318;28;20416;-68
2021/01/13 08:27:14;;;;;;;4.80;2.90;;;5.20;94.30;;;;;;5063226;28;20036;-67
2021/01/13 08:29:41;;;;;;;9.23;2.50;;;5.10;94.30;;;;;;5051369;28;20040;-67
2021/01/13 08:32:12;;;;;;;7.00;2.42;;;5.20;94.40;;;;;;5053589;28;20033;-67
2021/01/13 08:34:46;;;;;;;7.80;3.08;;;5.20;94.40;;;;;;5064979;28;20024;-67
2021/01/13 08:37:13;;;;;;;7.27;2.93;;;5.20;94.40;;;;;;5054752;28;20048;-68
2021/01/13 08:39:42;;;;;;;6.50;2.50;;;5.20;94.30;;;;;;5053182;28;20280;-67
2021/01/13 08:42:20;;;;;;;6.93;2.90;;;5.20;94.20;;;;;;5051504;28;20053;-67
2021/01/13 08:44:46;;;;;;;6.18;2.42;;;5.30;94.30;;;;;;5050603;28;20076;-67
2021/01/13 08:47:12;;;;;;;8.82;2.45;;;5.30;94.30;;;;;;5051384;28;20519;-67
2021/01/13 08:49:37;;;;;;;9.95;3.55;;;5.30;94.20;;;;;;5061540;28;20043;-67
2021/01/13 08:52:16;;;;;;;5.57;2.50;;;5.40;94.20;;;;;;5050146;28;20115;-67
2021/01/13 08:54:49;;;;;;;8.85;3.05;;;5.40;94.10;;;;;;5052410;28;20037;-68
2021/01/13 08:57:16;;;;;;;7.05;2.70;;;5.40;94.00;;;;;;5049996;28;20021;-67
2021/01/13 08:59:44;;;;;;;5.30;2.22;;;5.40;93.90;;;;;;5069544;28;20456;-67
2021/01/13 09:02:23;;;;;;;6.07;2.22;;;5.40;93.90;;;;;;5064998;28;20395;-67
2021/01/13 09:04:59;;;;;;;5.20;2.70;;;5.50;93.80;;;;;;5052262;28;20648;-68
2021/01/13 09:07:26;;;;;;;6.35;2.60;;;5.50;93.80;;;;;;5051133;28;20028;-68
2021/01/13 09:10:06;;;;;;;4.88;2.50;;;5.60;93.80;;;;;;5050559;28;20036;-68
2021/01/13 09:12:44;;;;;;;5.00;1.90;;;5.60;93.70;;;;;;5051867;28;20025;-67
2021/01/13 09:15:12;;;;;;;6.72;2.10;;;5.60;93.50;;;;;;5054347;28;20029;-69
2021/01/13 09:17:50;;;;;;;7.25;2.42;;;5.70;93.40;;;;;;5054380;28;20111;-69
2021/01/13 09:20:24;;;;;;;6.00;2.50;;;5.70;93.40;;;;;;5074431;28;20032;-69
2021/01/13 09:22:54;;;;;;;6.15;2.20;;;5.70;93.20;;;;;;5075295;28;20021;-70
2021/01/13 09:25:31;;;;;;;6.75;2.50;;;5.70;93.20;;;;;;5054894;28;20071;-69
2021/01/13 09:28:02;;;;;;;7.65;2.78;;;5.70;93.30;;;;;;5056556;28;20453;-69
2021/01/13 09:30:27;;;;;;;7.28;2.40;;;5.70;93.30;;;;;;5055515;28;20045;-70
2021/01/13 09:32:55;;;;;;;5.93;2.00;;;5.70;93.20;;;;;;5055469;28;20058;-69
2021/01/13 09:35:26;;;;;;;5.43;2.20;;;5.80;93.40;;;;;;5075664;28;20549;-70
2021/01/13 09:37:54;;;;;;;5.82;2.50;;;5.80;93.20;;;;;;5067643;28;20025;-71
2021/01/13 09:40:21;;;;;;;5.63;2.20;;;5.80;93.20;;;;;;5069291;28;20025;-73
2021/01/13 09:42:56;;;;;;;7.55;2.40;;;5.80;93.20;;;;;;5054549;28;20126;-70
2021/01/13 09:45:22;;;;;;;4.38;2.25;;;5.80;93.10;;;;;;5054813;28;20405;-69
2021/01/13 09:47:48;;;;;;;7.35;2.40;;;5.80;93.10;;;;;;5062165;28;20117;-69
2021/01/13 09:50:20;;;;;;;5.90;2.25;;;5.80;93.00;;;;;;5066244;28;20040;-70
2021/01/13 09:52:47;;;;;;;6.85;2.08;;;5.90;93.00;;;;;;5053848;28;20013;-70
2021/01/13 09:55:13;;;;;;;4.32;2.08;;;5.90;93.20;;;;;;5054884;28;20037;-71
2021/01/13 09:57:39;;;;;;;6.40;2.10;;;6.00;92.90;;;;;;5055101;28;20031;-69
2021/01/13 10:00:06;;;;;;;5.72;2.28;;;6.00;92.90;;;;;;5072730;28;20028;-69
2021/01/13 10:02:32;;;;;;;5.07;2.00;;;6.00;92.90;;;;;;5053992;28;20026;-71
2021/01/13 10:04:58;;;;;;;5.80;2.03;;;6.10;92.80;;;;;;5053943;28;20028;-71
2021/01/13 10:07:29;;;;;;;3.95;1.88;;;6.10;92.70;;;;;;5053868;28;20029;-70
2021/01/13 10:09:55;;;;;;;4.65;1.67;;;6.10;92.60;;;;;;5065541;28;20033;-70
2021/01/13 10:12:21;;;;;;;4.38;1.70;;;6.10;92.40;;;;;;5063512;28;20514;-69
2021/01/13 10:15:00;;;;;;;5.32;2.08;;;6.10;92.50;;;;;;5057902;28;20119;-69
2021/01/13 10:17:27;;;;;;;6.28;2.55;;;6.10;92.30;;;;;;5058343;28;20143;-70
2021/01/13 10:19:53;;;;;;;8.52;2.40;;;6.10;92.20;;;;;;5063441;28;20401;-70
2021/01/13 10:22:24;;;;;;;6.93;2.35;;;6.10;92.30;;;;;;5069825;28;20036;-70
2021/01/13 10:24:50;;;;;;;5.20;2.13;;;6.10;92.40;;;;;;5052558;28;20029;-70
2021/01/13 10:27:17;;;;;;;4.25;1.90;;;6.10;92.40;;;;;;5052211;28;20473;-70
2021/01/13 10:29:46;;;;;;;4.25;1.73;;;6.10;92.40;;;;;;5058988;28;20523;-70
2021/01/13 10:32:12;;;;;;;4.88;1.65;;;6.10;92.40;;;;;;5053739;28;20028;-70
2021/01/13 10:34:38;;;;;;;6.32;2.10;;;6.20;92.20;;;;;;5053090;28;20035;-70
2021/01/13 10:37:04;;;;;;;5.63;1.98;;;6.20;92.20;;;;;;5053382;28;20108;-69
2021/01/13 10:39:30;;;;;;;5.57;1.80;;;6.20;92.20;;;;;;5051052;28;20572;-74
2021/01/13 10:42:07;;;;;;;5.60;2.10;;;6.20;92.10;;;;;;5053341;28;20367;-70
2021/01/13 10:44:33;;;;;;;6.28;2.03;;;6.20;92.00;;;;;;5070175;28;20456;-70
2021/01/13 10:47:01;;;;;;;9.52;3.13;;;6.20;92.00;;;;;;5068850;28;20025;-68
2021/01/13 10:49:38;;;;;;;7.47;1.90;;;6.20;91.90;;;;;;5058191;28;20086;-69
2021/01/13 10:52:14;;;;;;;7.68;2.30;;;6.20;91.80;;;;;;5062568;28;20433;-68
2021/01/13 10:54:52;;;;;;;6.72;1.90;;;6.20;91.80;;;;;;5073182;28;20052;-68
2021/01/13 10:57:29;;;;;;;7.22;1.55;;;6.20;91.80;;;;;;5066700;28;20112;-68
2021/01/13 11:00:10;;;;;;;5.93;1.73;;;6.20;91.80;;;;;;5060090;28;20041;-68
2021/01/13 11:02:36;;;;;;;3.78;1.65;;;6.20;91.90;;;;;;5053167;28;20053;-68
2021/01/13 11:05:03;;;;;;;3.42;1.90;;;6.20;91.90;;;;;;5053640;28;20489;-69
2021/01/13 11:07:40;;;;;;;5.30;2.25;;;6.20;91.90;;;;;;5053111;28;20026;-68
2021/01/13 11:10:10;;;;;;;5.97;2.00;;;6.20;92.00;;;;;;5057086;28;20044;-68
2021/01/13 11:12:36;;;;;;;5.47;1.90;;;6.30;91.70;;;;;;5092794;28;20020;-68
2021/01/13 11:15:07;;;;;;;5.82;1.60;;;6.20;91.60;;;;;;5092812;28;20030;-68
2021/01/13 11:17:33;;;;;;;5.40;1.80;;;6.20;91.70;;;;;;5092892;28;20026;-68
2021/01/13 11:20:00;;;;;;;9.77;2.55;;;6.20;91.60;;;;;;5090053;28;20024;-68
2021/01/13 11:22:44;;;;;;;7.28;2.20;;;6.30;91.60;;;;;;5053617;28;20049;-68
2021/01/13 11:25:36;;;;;;;5.18;2.30;;;6.20;91.60;;;;;;5053419;28;20068;-68
2021/01/13 11:28:10;;;;;;;5.65;2.85;;;6.30;91.60;;;;;;5052531;28;20033;-68
2021/01/13 11:30:48;;;;;;;10.18;2.15;;;6.20;91.50;;;;;;5052392;28;20041;-68
2021/01/13 11:33:16;;;;;;;7.40;2.20;;;6.30;91.70;;;;;;5052474;28;20041;-67
2021/01/13 11:35:44;;;;;;;4.70;1.85;;;6.30;91.60;;;;;;5051301;28;20056;-68
2021/01/13 11:38:35;;;;;;;5.88;2.50;;;6.30;91.50;;;;;;5062078;28;20031;-68
2021/01/13 11:41:30;;;;;;;7.60;2.10;;;6.40;91.50;;;;;;5051889;28;20029;-68
2021/01/13 11:44:21;;;;;;;6.63;2.30;;;6.40;91.50;;;;;;5051410;28;20058;-68
2021/01/13 11:46:58;;;;;;;6.22;2.35;;;6.40;91.40;;;;;;5052191;28;20037;-68
2021/01/13 11:49:39;;;;;;;5.40;2.10;;;6.40;91.50;;;;;;5058433;28;20020;-67
2021/01/13 11:52:08;;;;;;;7.60;2.17;;;6.40;91.50;;;;;;5062613;28;20025;-67
2021/01/13 11:54:34;;;;;;;6.15;2.00;;;6.40;91.40;;;;;;5057176;28;20381;-68
2021/01/13 11:57:26;;;;;;;5.47;1.75;;;6.50;91.40;;;;;;5071634;28;20028;-67
2021/01/13 12:00:10;;;;;;;4.97;1.90;;;6.40;91.30;;;;;;5051975;28;20065;-66
2021/01/13 12:02:37;;;;;;;7.95;2.10;;;6.40;91.40;;;;;;5068759;28;20400;-67
2021/01/13 12:05:04;;;;;;;7.82;2.15;;;6.50;91.30;;;;;;5091864;28;20024;-67
2021/01/13 12:07:30;;;;;;;7.80;1.88;;;6.60;91.30;;;;;;5073782;28;20112;-68
2021/01/13 12:10:13;;;;;;;5.47;2.10;;;6.60;91.20;;;;;;5051996;28;20041;-68
2021/01/13 12:12:39;;;;;;;6.90;1.70;;;6.70;91.20;;;;;;5070620;28;20058;-68
2021/01/13 12:15:07;;;;;;;7.13;1.90;;;6.60;91.10;;;;;;5070219;28;20048;-67
2021/01/13 12:17:34;;;;;;;5.05;1.85;;;6.70;91.10;;;;;;5071766;28;20098;-67
2021/01/13 12:20:00;;;;;;;6.45;2.08;;;6.70;91.00;;;;;;5071690;28;20032;-67
2021/01/13 12:22:32;;;;;;;8.70;2.33;;;6.70;90.90;;;;;;5071763;28;20070;-67
2021/01/13 12:24:58;;;;;;;7.93;1.85;;;6.70;90.70;;;;;;5053740;28;20074;-67
2021/01/13 12:27:25;;;;;;;8.52;2.58;;;6.70;90.70;;;;;;5051618;28;20025;-70
2021/01/13 12:30:13;;;;;;;6.18;1.98;;;6.70;90.50;;;;;;5051727;28;20025;-70
2021/01/13 12:32:40;;;;;;;10.18;2.20;;;6.70;90.60;;;;;;5054486;28;20389;-68
2021/01/13 12:35:08;;;;;;;4.82;1.77;;;6.70;90.80;;;;;;5067524;28;20089;-68
2021/01/13 12:37:50;;;;;;;7.03;1.95;;;6.70;90.80;;;;;;5051052;28;20119;-68
2021/01/13 12:40:28;;;;;;;5.22;2.03;;;6.70;90.70;;;;;;5064488;28;20055;-68
2021/01/13 12:42:53;;;;;;;7.13;2.40;;;6.70;90.60;;;;;;5056791;28;20397;-68
2021/01/13 12:45:19;;;;;;;5.38;2.33;;;6.70;90.60;;;;;;5053688;28;20045;-68
2021/01/13 12:47:54;;;;;;;7.57;2.25;;;6.70;90.70;;;;;;5065270;28;20112;-68
2021/01/13 12:50:19;;;;;;;;;;;6.80;90.70;;;;;;5051420;28;20036;-68
2021/01/13 12:52:45;;;;;;;7.20;2.28;;;6.70;90.70;;;;;;5058972;28;20288;-68
2021/01/13 12:55:11;;;;;;;7.30;2.28;;;6.70;90.80;;;;;;5053780;28;20437;-68
2021/01/13 12:57:36;;;;;;;6.85;2.55;;;6.70;90.80;;;;;;5069301;28;20055;-68
2021/01/13 13:00:03;;;;;;;5.80;2.42;;;6.80;90.90;;;;;;5055294;28;20108;-68
2021/01/13 13:02:28;;;;;;;6.97;2.55;;;6.80;91.00;;;;;;5052088;28;20039;-67
2021/01/13 13:04:54;;;;;;;5.93;2.38;;;6.90;91.00;;;;;;5050695;28;20016;-67
2021/01/13 13:07:19;;;;;;;5.80;2.50;;;6.90;91.00;;;;;;5050558;28;20151;-67
2021/01/13 13:09:48;;;;;;;5.70;2.40;;;6.90;90.90;;;;;;5087112;28;20040;-67
2021/01/13 13:12:14;;;;;;;4.53;2.45;;;6.90;90.90;;;;;;5049834;28;20377;-67
2021/01/13 13:14:40;;;;;;;6.32;2.33;;;6.90;90.80;;;;;;5058058;28;20025;-66
2021/01/13 13:17:08;;;;;;;9.13;3.15;;;7.00;90.80;;;;;;5052392;28;20028;-67
2021/01/13 13:19:33;;;;;;;8.77;3.05;;;7.00;90.90;;;;;;5054019;28;20093;-68
2021/01/13 13:21:59;;;;;;;7.43;2.42;;;7.00;91.00;;;;;;5050409;28;20108;-67